createdAt,value
2022-12-08T00:00:48.382Z,1.46
2022-12-08T00:03:15.005Z,1.63
2022-12-08T00:06:07.981Z,1.71
2022-12-08T00:08:53.334Z,1.71
2022-12-08T00:11:20.114Z,1.71
2022-12-08T00:13:46.499Z,1.80
2022-12-08T00:16:13.174Z,1.82
2022-12-08T00:18:39.674Z,1.81
2022-12-08T00:21:06.331Z,1.85
2022-12-08T00:23:32.768Z,1.96
2022-12-08T00:26:06.445Z,1.97
2022-12-08T00:28:34.449Z,1.97
2022-12-08T00:31:07.792Z,2.03
2022-12-08T00:33:34.233Z,2.06
2022-12-08T00:36:09.653Z,2.08
2022-12-08T00:38:36.685Z,2.14
2022-12-08T00:41:06.839Z,2.16
2022-12-08T00:43:33.243Z,2.18
2022-12-08T00:45:59.713Z,2.20
2022-12-08T00:48:26.131Z,2.25
2022-12-08T00:50:52.553Z,2.25
2022-12-08T00:53:18.958Z,2.28
2022-12-08T00:55:45.376Z,2.26
2022-12-08T00:58:11.831Z,2.26
2022-12-08T01:00:41.250Z,2.28
2022-12-08T01:03:10.440Z,2.28
2022-12-08T01:05:36.947Z,2.36
2022-12-08T01:08:06.542Z,2.35
2022-12-08T01:10:35.994Z,2.33
2022-12-08T01:13:02.427Z,2.31
2022-12-08T01:15:28.891Z,2.34
2022-12-08T01:17:55.458Z,2.31
2022-12-08T01:20:21.861Z,2.27
2022-12-08T01:22:48.333Z,2.28
2022-12-08T01:25:14.772Z,2.26
2022-12-08T01:27:41.200Z,2.25
2022-12-08T01:30:08.299Z,2.19
2022-12-08T01:32:34.698Z,2.17
2022-12-08T01:35:01.672Z,2.17
2022-12-08T01:37:29.615Z,2.15
2022-12-08T01:39:56.012Z,2.15
2022-12-08T01:42:24.528Z,2.15
2022-12-08T01:44:57.492Z,2.21
2022-12-08T01:47:27.348Z,2.17
2022-12-08T01:49:53.841Z,2.22
2022-12-08T01:52:33.403Z,2.29
2022-12-08T01:55:05.917Z,2.32
2022-12-08T01:57:43.372Z,2.32
2022-12-08T02:00:13.140Z,2.27
2022-12-08T02:02:52.373Z,2.25
2022-12-08T02:05:22.191Z,2.24
2022-12-08T02:07:49.734Z,2.21
2022-12-08T02:10:22.488Z,2.18
2022-12-08T02:12:53.822Z,2.14
2022-12-08T02:15:26.329Z,2.09
2022-12-08T02:18:25.083Z,2.02
2022-12-08T02:20:57.404Z,1.99
2022-12-08T02:23:45.084Z,2.03
2022-12-08T02:26:30.390Z,2.02
2022-12-08T02:29:22.711Z,2.00
2022-12-08T02:32:12.312Z,2.06
2022-12-08T02:34:45.648Z,2.03
2022-12-08T02:37:22.500Z,2.10
2022-12-08T02:40:01.257Z,2.16
2022-12-08T02:42:35.108Z,2.16
2022-12-08T02:45:09.593Z,2.19
2022-12-08T02:47:36.238Z,2.13
2022-12-08T02:50:03.151Z,2.17
2022-12-08T02:52:29.677Z,2.19
2022-12-08T02:54:56.038Z,2.20
2022-12-08T02:57:58.718Z,2.19
2022-12-08T03:00:27.292Z,2.18
2022-12-08T03:03:14.940Z,2.25
2022-12-08T03:05:47.268Z,2.27
2022-12-08T03:08:32.218Z,2.30
2022-12-08T03:11:12.141Z,2.33
2022-12-08T03:13:51.378Z,2.32
2022-12-08T03:16:23.635Z,2.36
2022-12-08T03:18:56.670Z,2.37
2022-12-08T03:21:23.191Z,2.32
2022-12-08T03:23:53.313Z,2.40
2022-12-08T03:26:28.810Z,2.44
2022-12-08T03:28:55.354Z,2.43
2022-12-08T03:31:25.313Z,2.41
2022-12-08T03:33:54.348Z,2.42
2022-12-08T03:36:20.953Z,2.40
2022-12-08T03:38:52.927Z,2.33
2022-12-08T03:41:21.314Z,2.32
2022-12-08T03:43:52.271Z,2.34
2022-12-08T03:48:49.927Z,2.26
2022-12-08T03:51:16.872Z,2.26
2022-12-08T03:53:43.547Z,2.27
2022-12-08T03:56:30.921Z,2.29
2022-12-08T03:58:57.879Z,2.27
2022-12-08T04:01:25.173Z,2.25
2022-12-08T04:03:51.646Z,2.25
2022-12-08T04:06:18.898Z,2.26
2022-12-08T04:08:45.378Z,2.20
2022-12-08T04:11:12.298Z,2.17
2022-12-08T04:13:40.449Z,2.07
2022-12-08T04:16:08.481Z,2.10
2022-12-08T04:18:36.122Z,2.10
2022-12-08T04:21:02.832Z,2.09
2022-12-08T04:23:29.228Z,2.19
2022-12-08T04:25:55.635Z,2.16
2022-12-08T04:28:22.043Z,2.14
2022-12-08T04:30:49.351Z,2.14
2022-12-08T04:33:16.555Z,2.10
2022-12-08T04:35:42.983Z,2.15
2022-12-08T04:38:09.428Z,2.11
2022-12-08T04:40:35.836Z,2.10
2022-12-08T04:43:02.211Z,2.14
2022-12-08T04:45:28.647Z,2.13
2022-12-08T04:47:55.125Z,2.14
2022-12-08T04:50:21.561Z,2.14
2022-12-08T04:52:48.031Z,2.17
2022-12-08T04:55:14.427Z,2.09
2022-12-08T04:57:40.839Z,2.16
2022-12-08T05:00:08.146Z,2.15
2022-12-08T05:02:35.104Z,2.12
2022-12-08T05:05:01.692Z,2.10
2022-12-08T05:07:28.100Z,2.11
2022-12-08T05:09:54.500Z,2.09
2022-12-08T05:12:20.901Z,2.05
2022-12-08T05:14:48.190Z,2.11
2022-12-08T05:17:15.944Z,2.13
2022-12-08T05:19:42.473Z,2.10
2022-12-08T05:22:09.030Z,2.12
2022-12-08T05:24:35.443Z,2.04
2022-12-08T05:27:01.970Z,2.12
2022-12-08T05:29:28.459Z,2.15
2022-12-08T05:31:54.931Z,2.10
2022-12-08T05:34:21.357Z,2.05
2022-12-08T05:36:48.164Z,2.12
2022-12-08T05:39:15.304Z,2.13
2022-12-08T05:41:41.763Z,2.09
2022-12-08T05:44:08.738Z,2.11
2022-12-08T05:46:36.062Z,2.08
2022-12-08T05:49:03.246Z,2.11
2022-12-08T05:51:30.077Z,2.08
2022-12-08T05:53:57.128Z,2.10
2022-12-08T05:56:23.967Z,2.07
2022-12-08T05:58:50.419Z,2.08
2022-12-08T06:01:27.652Z,2.08
2022-12-08T06:03:54.575Z,2.04
2022-12-08T06:06:21.556Z,2.08
2022-12-08T06:08:48.213Z,2.10
2022-12-08T06:11:25.291Z,2.06
2022-12-08T06:13:52.316Z,2.10
2022-12-08T06:16:18.924Z,2.06
2022-12-08T06:18:45.848Z,2.03
2022-12-08T06:21:13.916Z,2.05
2022-12-08T06:23:40.368Z,2.00
2022-12-08T06:26:13.051Z,1.92
2022-12-08T06:28:40.113Z,1.97
2022-12-08T06:31:26.761Z,1.86
2022-12-08T06:33:54.482Z,1.87
2022-12-08T06:36:23.640Z,1.74
2022-12-08T06:38:51.187Z,1.78
2022-12-08T06:41:17.867Z,1.71
2022-12-08T06:43:44.760Z,1.70
2022-12-08T06:46:15.049Z,1.65
2022-12-08T06:48:41.629Z,1.65
2022-12-08T06:51:08.030Z,1.62
2022-12-08T06:53:34.806Z,1.60
2022-12-08T06:56:01.589Z,1.52
2022-12-08T06:58:28.005Z,1.62
2022-12-08T07:00:54.559Z,1.59
2022-12-08T07:03:21.207Z,1.52
2022-12-08T07:05:47.719Z,1.43
2022-12-08T07:08:14.369Z,1.42
2022-12-08T07:10:40.872Z,1.44
2022-12-08T07:13:07.339Z,1.45
2022-12-08T07:15:33.758Z,1.55
2022-12-08T07:18:00.681Z,1.60
2022-12-08T07:20:27.658Z,1.48
2022-12-08T07:22:54.163Z,1.50
2022-12-08T07:25:20.730Z,1.38
2022-12-08T07:27:47.510Z,1.32
2022-12-08T07:30:14.947Z,1.24
2022-12-08T07:32:41.639Z,1.35
2022-12-08T07:35:08.930Z,1.30
2022-12-08T07:37:36.214Z,1.32
2022-12-08T07:40:03.511Z,1.35
2022-12-08T07:42:30.117Z,1.33
2022-12-08T07:44:56.540Z,1.35
2022-12-08T07:47:22.940Z,1.29
2022-12-08T07:49:49.347Z,1.20
2022-12-08T07:52:15.737Z,1.23
2022-12-08T07:54:42.169Z,1.17
2022-12-08T07:57:09.830Z,1.22
2022-12-08T07:59:36.343Z,1.10
2022-12-08T08:02:22.886Z,0.95
2022-12-08T08:04:52.799Z,0.81
2022-12-08T08:07:19.425Z,0.69
2022-12-08T08:09:45.922Z,0.78
2022-12-08T08:15:01.216Z,0.80
2022-12-08T08:17:28.705Z,0.73
2022-12-08T08:19:55.384Z,0.84
2022-12-08T08:22:21.785Z,0.83
2022-12-08T08:24:48.253Z,0.79
2022-12-08T08:27:14.649Z,0.76
2022-12-08T08:29:41.236Z,0.69
2022-12-08T08:32:07.754Z,0.68
2022-12-08T08:34:34.292Z,0.68
2022-12-08T08:37:00.844Z,0.72
2022-12-08T08:39:27.533Z,0.61
2022-12-08T08:41:53.940Z,0.55
2022-12-08T08:44:20.364Z,0.50
2022-12-08T08:46:46.932Z,0.54
2022-12-08T08:49:13.400Z,0.55
2022-12-08T08:51:39.873Z,0.48
2022-12-08T08:54:06.499Z,0.44
2022-12-08T08:56:32.994Z,0.45
2022-12-08T08:58:59.379Z,0.47
2022-12-08T09:01:28.100Z,0.44
2022-12-08T09:03:55.416Z,0.43
2022-12-08T09:06:23.289Z,0.43
2022-12-08T09:08:50.403Z,0.48
2022-12-08T09:11:18.708Z,0.52
2022-12-08T09:13:48.428Z,0.65
2022-12-08T09:16:14.986Z,0.79
2022-12-08T09:18:41.460Z,0.87
2022-12-08T09:21:13.041Z,0.85
2022-12-08T09:23:39.467Z,0.88
2022-12-08T09:26:06.087Z,0.92
2022-12-08T09:28:32.990Z,0.97
2022-12-08T09:30:59.878Z,1.20
2022-12-08T09:33:26.320Z,1.91
2022-12-08T09:35:52.776Z,2.69
2022-12-08T09:38:19.173Z,2.98
2022-12-08T09:40:50.290Z,3.14
2022-12-08T09:43:34.487Z,3.12
2022-12-08T09:46:04.662Z,4.10
2022-12-08T09:48:35.624Z,4.06
2022-12-08T09:51:04.688Z,5.14
2022-12-08T09:53:42.145Z,5.22
2022-12-08T09:56:14.026Z,5.92
2022-12-08T09:58:58.436Z,6.62
2022-12-08T10:01:30.740Z,6.78
2022-12-08T10:03:57.737Z,7.41
2022-12-08T10:06:47.694Z,7.56
2022-12-08T10:09:59.556Z,7.09
2022-12-08T10:12:29.000Z,6.69
2022-12-08T10:15:20.339Z,7.05
2022-12-08T10:17:49.498Z,7.20
2022-12-08T10:20:18.782Z,8.27
2022-12-08T10:22:50.845Z,7.56
2022-12-08T10:25:22.093Z,6.57
2022-12-08T10:27:51.310Z,6.39
2022-12-08T10:30:19.670Z,6.14
2022-12-08T10:32:49.193Z,5.19
2022-12-08T10:35:17.871Z,5.39
2022-12-08T10:37:59.255Z,5.16
2022-12-08T10:40:28.884Z,5.33
2022-12-08T10:42:58.905Z,5.32
2022-12-08T10:45:38.691Z,5.76
2022-12-08T10:48:27.017Z,5.41
2022-12-08T10:50:58.149Z,5.26
2022-12-08T10:53:30.573Z,4.75
2022-12-08T10:56:02.664Z,4.70
2022-12-08T10:58:36.069Z,5.04
2022-12-08T11:01:14.983Z,4.78
2022-12-08T11:04:01.772Z,5.03
2022-12-08T11:06:41.287Z,5.51
2022-12-08T11:09:24.018Z,6.12
2022-12-08T11:11:57.468Z,6.18
2022-12-08T11:14:33.054Z,6.88
2022-12-08T11:17:22.424Z,6.88
2022-12-08T11:19:58.053Z,7.27
2022-12-08T11:22:45.172Z,7.75
2022-12-08T11:25:19.020Z,7.64
2022-12-08T11:27:51.207Z,6.97
2022-12-08T11:30:20.212Z,6.09
2022-12-08T11:32:49.789Z,5.73
2022-12-08T11:35:24.560Z,4.97
2022-12-08T11:37:54.498Z,4.78
2022-12-08T11:40:37.506Z,4.92
2022-12-08T11:43:26.235Z,5.02
2022-12-08T11:46:02.087Z,4.91
2022-12-08T11:48:40.558Z,4.70
2022-12-08T11:51:40.295Z,4.48
2022-12-08T11:54:25.081Z,4.57
2022-12-08T11:56:57.459Z,4.52
2022-12-08T11:59:57.262Z,4.58
2022-12-08T12:02:34.966Z,4.67
2022-12-08T12:05:01.350Z,4.78
2022-12-08T12:07:47.047Z,5.48
2022-12-08T12:10:31.855Z,5.95
2022-12-08T12:13:16.991Z,6.34
2022-12-08T12:16:09.625Z,6.62
2022-12-08T12:18:40.521Z,7.05
2022-12-08T12:21:22.716Z,7.26
2022-12-08T12:23:55.691Z,7.02
2022-12-08T12:26:25.381Z,7.05
2022-12-08T12:28:57.820Z,7.18
2022-12-08T12:31:28.878Z,6.98
2022-12-08T12:34:06.298Z,6.89
2022-12-08T12:37:03.954Z,6.84
2022-12-08T12:39:33.731Z,7.03
2022-12-08T12:42:02.734Z,6.62
2022-12-08T12:44:29.043Z,6.63
2022-12-08T12:46:58.365Z,6.36
2022-12-08T12:49:39.777Z,6.18
2022-12-08T12:52:15.176Z,5.98
2022-12-08T12:54:50.570Z,6.25
2022-12-08T12:57:19.910Z,5.98
2022-12-08T12:59:55.575Z,5.73
2022-12-08T13:02:39.920Z,5.74
2022-12-08T13:05:23.596Z,5.88
2022-12-08T13:08:00.837Z,5.55
2022-12-08T13:10:34.459Z,5.64
2022-12-08T13:13:10.106Z,5.61
2022-12-08T13:15:40.068Z,5.51
2022-12-08T13:18:16.472Z,5.31
2022-12-08T13:20:47.983Z,5.22
2022-12-08T13:23:29.752Z,5.28
2022-12-08T13:26:23.691Z,5.24
2022-12-08T13:29:15.024Z,5.11
2022-12-08T13:31:49.839Z,5.06
2022-12-08T13:34:19.975Z,5.03
2022-12-08T13:37:05.273Z,4.79
2022-12-08T13:39:40.839Z,4.88
2022-12-08T13:42:25.444Z,4.66
2022-12-08T13:48:26.620Z,4.22
2022-12-08T13:55:01.896Z,3.96
2022-12-08T13:57:06.721Z,3.98
2022-12-08T13:59:43.778Z,3.83
2022-12-08T14:02:25.284Z,3.78
2022-12-08T14:07:40.043Z,3.73
2022-12-08T14:10:16.549Z,3.73
2022-12-08T14:12:47.119Z,3.62
2022-12-08T14:15:15.731Z,3.58
2022-12-08T14:17:52.562Z,3.56
2022-12-08T14:20:30.915Z,3.40
2022-12-08T14:23:01.448Z,3.37
2022-12-08T14:25:29.074Z,3.13
2022-12-08T14:28:04.170Z,2.95
2022-12-08T14:30:32.722Z,2.91
2022-12-08T14:33:01.305Z,2.80
2022-12-08T14:35:32.949Z,2.75
2022-12-08T14:38:01.983Z,2.64
2022-12-08T14:40:36.816Z,2.58
2022-12-08T14:43:17.284Z,2.49
2022-12-08T14:45:43.606Z,2.42
2022-12-08T14:48:33.453Z,2.36
2022-12-08T14:51:15.291Z,2.18
2022-12-08T14:54:01.423Z,2.07
2022-12-08T14:56:38.050Z,1.95
2022-12-08T14:59:13.288Z,2.06
2022-12-08T15:01:41.185Z,1.96
2022-12-08T15:04:13.423Z,1.85
2022-12-08T15:07:06.852Z,1.74
2022-12-08T15:09:39.710Z,1.60
2022-12-08T15:12:15.422Z,1.52
2022-12-08T15:15:14.267Z,1.58
2022-12-08T15:17:41.576Z,1.41
2022-12-08T15:20:31.681Z,1.37
2022-12-08T15:23:01.938Z,1.36
2022-12-08T15:25:28.391Z,1.38
2022-12-08T15:27:56.416Z,1.32
2022-12-08T15:30:23.326Z,1.15
2022-12-08T15:32:52.244Z,1.14
2022-12-08T15:35:18.763Z,1.08
2022-12-08T15:37:46.319Z,1.07
2022-12-08T15:40:18.934Z,0.88
2022-12-08T15:42:45.652Z,0.89
2022-12-08T15:45:14.437Z,0.82
2022-12-08T15:47:42.224Z,0.75
2022-12-08T15:50:22.792Z,0.73
2022-12-08T15:52:50.912Z,0.51
2022-12-08T15:55:21.247Z,0.62
2022-12-08T15:58:45.058Z,0.61
2022-12-08T16:00:54.473Z,0.59
2022-12-08T16:09:13.567Z,0.42
2022-12-08T16:12:08.868Z,0.36
2022-12-08T16:17:22.855Z,0.39
2022-12-08T16:19:49.258Z,0.51
2022-12-08T16:22:52.360Z,0.56
2022-12-08T16:25:17.749Z,0.38
2022-12-08T16:28:12.256Z,0.46
2022-12-08T16:30:32.633Z,0.36
2022-12-08T16:32:59.039Z,0.34
2022-12-08T16:35:25.443Z,0.26
2022-12-08T16:37:51.886Z,0.20
2022-12-08T16:40:18.428Z,0.16
2022-12-08T16:42:46.412Z,0.12
2022-12-08T16:45:27.796Z,0.28
2022-12-08T16:47:59.926Z,0.28
2022-12-08T16:50:29.424Z,0.26
2022-12-08T16:53:07.385Z,0.36
2022-12-08T16:55:34.308Z,0.30
2022-12-08T16:58:02.557Z,0.18
2022-12-08T17:00:31.222Z,0.12
2022-12-08T17:02:58.944Z,0.16
2022-12-08T17:05:26.163Z,0.26
2022-12-08T17:07:53.778Z,0.26
2022-12-08T17:10:28.542Z,0.22
2022-12-08T17:12:56.025Z,0.38
2022-12-08T17:15:25.585Z,0.16
2022-12-08T17:17:52.406Z,0.03
2022-12-08T17:20:24.299Z,-0.03
2022-12-08T17:22:53.137Z,-0.06
2022-12-08T17:25:19.696Z,-0.02
2022-12-08T17:27:46.239Z,-0.07
2022-12-08T17:30:15.640Z,-0.06
2022-12-08T17:32:42.997Z,-0.03
2022-12-08T17:35:10.123Z,-0.13
2022-12-08T17:37:36.563Z,-0.07
2022-12-08T17:40:03.484Z,-0.09
2022-12-08T17:42:30.081Z,0.03
2022-12-08T17:44:56.480Z,0.01
2022-12-08T17:47:22.873Z,0.10
2022-12-08T17:49:49.377Z,0.11
2022-12-08T17:52:15.871Z,0.17
2022-12-08T17:54:42.292Z,0.11
2022-12-08T17:57:08.687Z,0.11
2022-12-08T17:59:35.277Z,0.09
2022-12-08T18:02:02.146Z,0.04
2022-12-08T18:04:28.830Z,0.05
2022-12-08T18:06:55.440Z,-0.05
2022-12-08T18:09:21.934Z,-0.02
2022-12-08T18:11:48.495Z,-0.04
2022-12-08T18:14:15.357Z,-0.18
2022-12-08T18:16:45.172Z,-0.23
2022-12-08T18:19:13.474Z,-0.26
2022-12-08T18:21:40.864Z,-0.11
2022-12-08T18:24:09.055Z,-0.08
2022-12-08T18:26:35.579Z,-0.05
2022-12-08T18:29:02.131Z,0.05
2022-12-08T18:31:28.635Z,0.10
2022-12-08T18:33:55.076Z,0.13
2022-12-08T18:36:24.107Z,0.13
2022-12-08T18:38:51.575Z,0.16
2022-12-08T18:41:20.554Z,0.26
2022-12-08T18:43:47.182Z,0.31
2022-12-08T18:46:14.489Z,0.31
2022-12-08T18:48:43.993Z,0.25
2022-12-08T18:51:15.261Z,0.25
2022-12-08T18:53:42.035Z,0.24
2022-12-08T18:56:09.298Z,0.20
2022-12-08T18:58:35.964Z,0.25
2022-12-08T19:01:02.418Z,0.19
2022-12-08T19:03:29.394Z,0.17
2022-12-08T19:06:04.701Z,0.23
2022-12-08T19:08:31.623Z,0.15
2022-12-08T19:10:58.414Z,0.23
2022-12-08T19:13:25.040Z,0.34
2022-12-08T19:15:51.515Z,0.24
2022-12-08T19:18:18.043Z,0.14
2022-12-08T19:20:44.538Z,0.03
2022-12-08T19:23:13.446Z,-0.06
2022-12-08T19:25:40.221Z,-0.09
2022-12-08T19:28:06.813Z,-0.10
2022-12-08T19:30:33.623Z,-0.12
2022-12-08T19:33:00.092Z,-0.14
2022-12-08T19:35:26.535Z,-0.15
2022-12-08T19:37:54.760Z,-0.10
2022-12-08T19:40:40.005Z,-0.11
2022-12-08T19:43:54.007Z,-0.07
2022-12-08T19:46:20.663Z,-0.13
2022-12-08T19:48:47.257Z,-0.20
2022-12-08T19:51:13.762Z,-0.26
2022-12-08T19:53:47.175Z,-0.30
2022-12-08T19:56:14.186Z,-0.23
2022-12-08T19:58:40.587Z,-0.24
2022-12-08T20:01:07.133Z,0.05
2022-12-08T20:03:33.666Z,0.18
2022-12-08T20:06:00.132Z,0.15
2022-12-08T20:08:26.647Z,0.27
2022-12-08T20:10:55.958Z,0.22
2022-12-08T20:13:40.889Z,0.06
2022-12-08T20:16:08.181Z,0.04
2022-12-08T20:18:36.245Z,-0.03
2022-12-08T20:21:03.278Z,0.04
2022-12-08T20:23:29.842Z,0.15
2022-12-08T20:25:56.285Z,0.20
2022-12-08T20:28:22.840Z,0.18
2022-12-08T20:30:49.606Z,0.13
2022-12-08T20:33:18.416Z,0.01
2022-12-08T20:35:47.627Z,-0.03
2022-12-08T20:38:14.218Z,0.01
2022-12-08T20:40:44.195Z,0.00
2022-12-08T20:43:10.774Z,0.00
2022-12-08T20:45:37.166Z,0.17
2022-12-08T20:48:04.927Z,0.22
2022-12-08T20:50:31.415Z,0.24
2022-12-08T20:52:57.937Z,0.28
2022-12-08T20:55:24.474Z,0.28
2022-12-08T20:57:50.993Z,0.34
2022-12-08T21:00:17.792Z,0.57
2022-12-08T21:02:49.774Z,0.45
2022-12-08T21:05:16.697Z,0.55
2022-12-08T21:07:43.393Z,0.64
2022-12-08T21:10:10.825Z,0.63
2022-12-08T21:12:37.745Z,0.66
2022-12-08T21:15:04.685Z,0.59
2022-12-08T21:17:31.164Z,0.57
2022-12-08T21:19:57.936Z,0.57
2022-12-08T21:22:24.470Z,0.50
2022-12-08T21:24:50.943Z,0.44
2022-12-08T21:27:17.397Z,0.42
2022-12-08T21:29:43.980Z,0.44
2022-12-08T21:32:10.501Z,0.40
2022-12-08T21:34:37.071Z,0.51
2022-12-08T21:37:03.728Z,0.44
2022-12-08T21:39:30.217Z,0.44
2022-12-08T21:42:15.596Z,0.50
2022-12-08T21:44:42.337Z,0.51
2022-12-08T21:47:08.883Z,0.53
2022-12-08T21:49:35.624Z,0.53
2022-12-08T21:52:02.290Z,0.65
2022-12-08T21:54:28.972Z,0.78
2022-12-08T21:56:55.562Z,0.97
2022-12-08T21:59:22.005Z,0.82
2022-12-08T22:01:49.099Z,0.71
2022-12-08T22:04:18.420Z,0.72
2022-12-08T22:06:45.217Z,0.83
2022-12-08T22:09:13.501Z,0.76
2022-12-08T22:11:40.257Z,0.90
2022-12-08T22:14:10.977Z,0.86
2022-12-08T22:16:41.018Z,0.78
2022-12-08T22:19:07.507Z,0.88
2022-12-08T22:21:33.974Z,1.06
2022-12-08T22:24:01.398Z,1.10
2022-12-08T22:26:27.805Z,1.03
2022-12-08T22:28:54.280Z,0.95
2022-12-08T22:31:21.254Z,0.92
2022-12-08T22:33:48.889Z,0.81
2022-12-08T22:36:21.441Z,0.88
2022-12-08T22:38:48.307Z,0.89
2022-12-08T22:41:15.048Z,0.78
2022-12-08T22:43:42.436Z,0.79
2022-12-08T22:46:12.252Z,0.81
2022-12-08T22:48:39.207Z,0.92
2022-12-08T22:51:06.424Z,0.91
2022-12-08T22:53:33.676Z,0.92
2022-12-08T22:56:00.503Z,0.98
2022-12-08T22:58:28.487Z,0.91
2022-12-08T23:00:55.016Z,0.89
2022-12-08T23:03:21.673Z,0.86
2022-12-08T23:05:48.345Z,0.89
2022-12-08T23:08:16.505Z,0.86
2022-12-08T23:10:44.727Z,0.79
2022-12-08T23:13:11.978Z,0.77
2022-12-08T23:15:39.575Z,0.78
2022-12-08T23:18:07.280Z,0.78
2022-12-08T23:20:34.568Z,0.80
2022-12-08T23:23:01.029Z,0.79
2022-12-08T23:25:27.422Z,0.78
2022-12-08T23:27:53.825Z,0.91
2022-12-08T23:30:20.216Z,0.92
2022-12-08T23:32:46.736Z,0.90
2022-12-08T23:35:13.209Z,0.88
2022-12-08T23:37:39.702Z,0.90
2022-12-08T23:40:07.273Z,0.94
2022-12-08T23:42:34.259Z,0.90
2022-12-08T23:45:00.808Z,0.95
2022-12-08T23:47:27.489Z,1.06
2022-12-08T23:49:54.000Z,0.97
2022-12-08T23:52:20.606Z,0.94
2022-12-08T23:54:49.825Z,1.01
2022-12-08T23:57:16.363Z,1.01
2022-12-08T23:59:42.762Z,1.00
